Terminal Aerodrome Forecast
Issued by NWS Wilmington, NC

Home | Current Version | Previous Version | Text Only | Print | Product List | Glossary On
Versions: 1 2 3 4 5 6 7 8 9 10 11 12 13 14 15 16 17 18 19 20 21 22 23 24
000
FTUS42 KILM 271120
TAFMYR
TAF
KMYR 271120Z 2712/2812 24008KT 6SM BR VCSH SCT008 OVC090
     FM271400 25010KT 6SM -SHRA BKN016
      TEMPO 2716/2718 24015KT 2SM SHRA BKN012
     FM271800 34012G20KT 6SM -RA BKN008 OVC012
     FM272300 36012KT P6SM BKN014=

USA.gov is the U.S. government's official web portal to all federal, state and local government web resources and services.